Terminal Aerodrome Forecast
Issued by NWS

Home | Current Version | Previous Version | Text Only | Print | Product List | Glossary Off
Versions: 1 2 3 4 5 6 7 8 9 10 11 12 13 14 15 16 17 18 19 20 21

000
FTUS43 KTOP 310500
TAFMHK
TAF
KMHK 310520Z 3106/0106 19003KT P6SM SKC
     FM311400 19015G22KT P6SM FEW070 SCT120
     FM010100 17011KT P6SM VCTS BKN070CB=

USA.gov is the U.S. government's official web portal to all federal, state and local government web resources and services.